Valley Peak, Santa Cruz Island Reserve, California Weather observations

Data are for 10 minute period ending at time listed.
 Day   Time   Solar   Ave.   Ave.  Ave.  Vector  Max.   Baro.   Total    
  of    of     Rad.   Air    Rel.  Wind   Wind   Wind  Press.  Precip.   
Year   Day            Temp.  Hum.  Speed  Dir.   Gust                    
2017   (PST)  Kw/m2    F      %     mph   deg.    mph    mb.     in.     
-------------------------------------------------------------------------
 200   12:20   0.93   73.9    65    5.1    41     8.2   966.8    0.00 
 200   12:30   0.93   73.9    65    5.6    40     8.6   966.7    0.00 
 200   12:40   0.93   72.9    67    4.6    40     6.9   966.7    0.00 
 200   12:50   0.92   74.7    63    3.3    44     6.3   966.7    0.00 
 200   13:00   0.91   77.9    57    3.3    60     5.4   966.7    0.00 
 200   13:10   0.90   79.3    55    2.7    63     5.1   966.6    0.00 
 200   13:20   0.90   80.5    54    2.9    66     4.9   966.5    0.00 
 200   13:30   0.89   80.5    55    3.6   118     7.4   966.5    0.00 
 200   13:40   0.87   80.2    55    4.0   138     7.4   966.5    0.00 
 200   13:50   0.86   78.8    56    3.6   144     6.5   966.4    0.00 
 200   14:00   0.84   79.7    55    3.2   137     5.6   966.3    0.00 
 200   14:10   0.83   80.2    54    2.7   134     5.8   966.3    0.00 
 200   14:20   0.81   80.6    52    2.7   165     5.6   966.1    0.00 
 200   14:30   0.79   79.6    53    2.6   159     6.0   966.1    0.00 
 200   14:40   0.77   80.7    51    2.1   144     6.9   966.1    0.00 
 200   14:50   0.74   81.8    49    2.1   151     5.6   966.0    0.00 
 200   15:00   0.72   81.8    44    2.0   172     5.1   965.9    0.00 
 200   15:10   0.70   82.2    46    2.2   197     6.1   965.8    0.00 
 200   15:20   0.67   82.0    47    1.6   281     6.9   965.7    0.00 
 200   15:30   0.64   81.6    50    3.5    42     5.1   965.5    0.00 
 200   15:40   0.61   79.2    53    2.4    32     4.4   965.4    0.00 
 200   15:50   0.58   79.7    52    2.1    48     4.6   965.3    0.00 
 200   16:00   0.55   80.3    52    2.8    34     4.0   965.3    0.00 
 200   16:10   0.52   80.1    52    2.8    20     4.6   965.2    0.00 
 200   16:20   0.48   79.7    52    1.6   344     3.9   965.2    0.00 
 200   16:30   0.45   77.9    54    2.7   353     4.3   965.1    0.00 
 200   16:40   0.42   74.1    58    4.5   353     8.3   965.0    0.00 
 200   16:50   0.39   72.7    60    5.7   351     7.8   964.9    0.00 
 200   17:00   0.35   72.2    62    5.0   343     6.5   964.8    0.00 
 200   17:10   0.32   71.6    64    5.4   359     8.0   964.7    0.00 
 200   17:20   0.29   70.6    65    6.2   356     8.9   964.6    0.00 
 200   17:30   0.25   70.5    64    6.0   358     7.2   964.6    0.00 
 200   17:40   0.22   70.8    62    5.3   353     6.6   964.5    0.00 
 200   17:50   0.19   71.9    58    4.6   333     6.4   964.5    0.00 
 200   18:00   0.16   73.3    52    4.5   332     6.9   964.5    0.00 
 200   18:10   0.13   73.1    51    4.4   341     6.4   964.6    0.00 
 200   18:20   0.10   72.3    55    4.3   341     9.5   964.6    0.00 
 200   18:30   0.08   71.6    51    8.3   334    11.9   964.6    0.00 
 200   18:40   0.06   72.6    45    8.3   324    11.2   964.6    0.00 
 200   18:50   0.03   72.7    46    7.5   328    11.0   964.6    0.00 
 200   19:00   0.01   72.2    48    5.3   339     7.8   964.6    0.00 
 200   19:10   0.00   71.1    49    3.5   352     4.7   964.6    0.00 
 200   19:20   0.00   70.8    50    3.8   342     4.8   964.6    0.00 
 200   19:30   0.00   70.4    50    4.0   352     5.3   964.7    0.00 
 200   19:40   0.00   70.2    51    4.7   340     6.9   964.7    0.00 
 200   19:50   0.00   70.8    51    6.1   328     7.0   964.8    0.00 
 200   20:00   0.00   70.8    51    5.1   313     5.8   964.8    0.00 
 200   20:10   0.00   71.1    50    4.2   304     5.6   964.9    0.00 
 200   20:20   0.00   71.7    49    2.4   248     3.5   964.9    0.00 
 200   20:30   0.00   72.9    42    1.7   302     5.8   965.1    0.00 
 200   20:40   0.00   73.1    39    3.3   327     5.7   965.2    0.00 
 200   20:50   0.00   73.2    36    3.5   339     5.3   965.3    0.00 
 200   21:00   0.00   73.1    39    3.9   359     4.6   965.3    0.00 
 200   21:10   0.00   72.3    40    3.1   359     4.3   965.4    0.00 
 200   21:20   0.00   72.6    37    2.1   325     3.1   965.4    0.00 
 200   21:30   0.00   71.8    40    3.8   216     5.6   965.4    0.00 
 200   21:40   0.00   70.9    50    6.3   194     7.0   965.3    0.00 
 200   21:50   0.00   69.8    55    6.3   194     6.9   965.3    0.00 
 200   22:00   0.00   68.7    59    4.1   184     5.7   965.3    0.00 
 200   22:10   0.00   68.4    59    3.3   157     4.4   965.2    0.00 
 200   22:20   0.00   67.4    62    4.2   152     4.7   965.3    0.00 
 200   22:30   0.00   66.5    65    4.3   158     4.7   965.3    0.00 
 200   22:40   0.00   65.4    70    6.4   158     8.1   965.3    0.00 
 200   22:50   0.00   63.6    80    8.2   159     8.9   965.2    0.00 
 200   23:00   0.00   64.1    75    6.8   152     7.8   965.2    0.00 
 200   23:10   0.00   64.3    74    5.9   144     7.3   965.2    0.00 
 200   23:20   0.00   64.8    69    5.6   129     6.4   965.1    0.00 
 200   23:30   0.00   65.4    66    6.7   119     7.8   965.1    0.00 
 200   23:40   0.00   65.1    70    8.1   117     8.8   965.1    0.00 
 200   23:50   0.00   64.8    71    7.6   118     8.9   965.1    0.00 
 201    0:00   0.00   65.3    68    7.2   121     8.2   965.1    0.00 
 201    0:10   0.00   65.0    71    8.7   124    10.4   965.2    0.00 
 201    0:20   0.00   64.7    70    8.9   118    11.4   965.1    0.00 
 201    0:30   0.00   64.8    68    8.9   116    10.4   965.1    0.00 
 201    0:40   0.00   64.5    72    9.5   118    10.6   965.1    0.00 
 201    0:50   0.00   61.9    96    7.9   123     9.7   965.0    0.00 
 201    1:00   0.00   60.3    98    8.0   111     9.9   964.9    0.00 
 201    1:10   0.00   61.2    89    9.9   118    11.0   964.9    0.00 
 201    1:20   0.00   61.1    94    9.8   117    11.2   964.9    0.00 
 201    1:30   0.00   60.5    97   10.4   115    12.2   964.9    0.00 
 201    1:40   0.00   60.7    90   10.4   117    11.8   964.9    0.00 
 201    1:50   0.00   60.5    90   10.0   108    12.3   965.1    0.00 
 201    2:00   0.00   60.4    88   10.7   108    12.6   965.1    0.00 
 201    2:10   0.00   60.8    84   10.9   114    12.3   965.2    0.00 
 201    2:20   0.00   61.0    84   10.6   121    12.3   965.1    0.00 
 201    2:30   0.00   60.5    94   10.2   129    12.0   965.1    0.00 
 201    2:40   0.00   59.6   100    9.8   132    11.8   965.0    0.00 
 201    2:50   0.00   59.1   100    9.4   134    11.5   965.1    0.00 
 201    3:00   0.00   58.9   100   10.4   128    11.7   965.1    0.00 
 201    3:10   0.00   58.9    99   10.9   122    12.1   965.2    0.00 
 201    3:20   0.00   59.4    99    9.9   117    11.1   965.3    0.00 
 201    3:30   0.00   59.4   100   10.3   122    12.5   965.3    0.00 
 201    3:40   0.00   59.1   100    8.4   122    10.4   965.3    0.00 
 201    3:50   0.00   58.9   100    7.4   127     9.5   965.4    0.00 
 201    4:00   0.00   58.8   100    6.9   137     8.8   965.4    0.00 
 201    4:10   0.00   58.8   100    5.6   140     7.9   965.4    0.00 
 201    4:20   0.00   58.8   100    6.1   139     8.3   965.5    0.00 
 201    4:30   0.00   58.8   100    5.1   122     8.0   965.6    0.00 
 201    4:40   0.00   58.8   100    4.2   125     5.9   965.8    0.00 
 201    4:50   0.00   58.6   100    4.2   143     7.5   965.8    0.00 
 201    5:00   0.00   58.0   100    4.6   146     6.4   965.9    0.00 
 201    5:10   0.00   58.2   100    6.3   151     9.2   965.9    0.00 
 201    5:20   0.01   58.5   100    4.5   144     7.5   966.0    0.00 
 201    5:30   0.03   58.7   100    4.2   135     6.6   966.1    0.00 
 201    5:40   0.06   58.5   100    5.7   128     8.1   966.2    0.00 
 201    5:50   0.08   59.1   100    5.2   107     7.2   966.3    0.00 
 201    6:00   0.07   59.4   100    5.0   102     7.0   966.4    0.00 
 201    6:10   0.06   59.6   100    3.5    95     6.3   966.4    0.00 
 201    6:20   0.08   59.7   100    3.1    54     4.8   966.3    0.00 
 201    6:30   0.17   59.9   100    4.0    48     7.2   966.3    0.00 
 201    6:40   0.22   60.1   100    5.5    40     8.0   966.4    0.00 
 201    6:50   0.21   60.4   100    5.3    38     7.7   966.5    0.00 
 201    7:00   0.25   60.8   100    4.3    48     6.4   966.7    0.00 
 201    7:10   0.34   60.9   100    3.0    58     5.5   966.7    0.00 
 201    7:20   0.33   62.0   100    3.3   122     5.0   966.8    0.00 
 201    7:30   0.37   63.0   100    3.4   132     5.3   966.8    0.00 
 201    7:40   0.45   64.2    97    3.1    95     5.3   966.9    0.00 
 201    7:50   0.47   65.9    87    2.6    53     5.0   966.8    0.00 
 201    8:00   0.44   67.1    83    2.7   109     6.9   966.9    0.00 
 201    8:10   0.38   67.4    83    3.3   135     6.1   967.0    0.00 
 201    8:20   0.38   67.1    85    3.8   131     8.0   967.0    0.00 
 201    8:30   0.39   66.9    85    3.1   121     6.0   967.0    0.00 
 201    8:40   0.35   66.9    85    3.2   143     6.2   967.1    0.00 
 201    8:50   0.38   67.1    84    3.0   159     5.7   967.2    0.00 
 201    9:00   0.40   65.6    89    2.6   158     5.5   967.3    0.00 
 201    9:10   0.66   67.4    83    2.9   107     6.4   967.3    0.00 
 201    9:20   0.74   70.1    74    2.8    52     5.5   967.4    0.00 
 201    9:30   0.76   71.6    70    3.8    61     6.6   967.4    0.00 
 201    9:40   0.79   71.1    70    2.4    41     5.2   967.5    0.00 
 201    9:50   0.81   72.1    68    3.1    68     6.4   967.7    0.00 
 201   10:00   0.81   73.7    66    4.2   106     9.9   967.7    0.00 
 201   10:10   0.84   73.1    68    4.5   110     7.9   967.8    0.00 
 201   10:20   0.86   73.8    64    3.2    66     6.5   967.7    0.00 
 201   10:30   0.88   73.7    63    3.5    50     8.2   967.7    0.00 
 201   10:40   0.90   72.3    65    4.6    42     7.7   967.7    0.00 
 201   10:50   0.91   72.6    64    4.4    49     7.3   967.8    0.00 
 201   11:00   0.92   73.8    62    3.4    49     6.2   967.7    0.00 
 201   11:10   0.93   75.2    59    4.3    47     8.1   967.7    0.00 
 201   11:20   0.94   75.8    58    3.5    52     6.1   967.8    0.00 
 201   11:30   0.94   76.7    57    3.2    69     5.6   967.8    0.00 
 201   11:40   0.95   77.0    58    3.8    94     7.5   967.7    0.00 
 201   11:50   0.95   76.4    59    3.5    78     7.1   967.7    0.00 
 201   12:00   0.96   75.9    58    2.6    56     5.1   967.5    0.00 
 201   12:10   0.96   75.3    58    3.1    42     5.7   967.5    0.00 

Return to Valley Peak, Santa Cruz Island Reserve graphs page.


Western Regional Climate Center,wrcc@dri.edu